sensor_id;sensor_type;location;lat;lon;timestamp;temperature;humidity
43679;DHT22;29279;50.858;4.392;2024-02-28T00:02:02;8.00;99.90
43679;DHT22;29279;50.858;4.392;2024-02-28T00:04:28;7.90;99.90
43679;DHT22;29279;50.858;4.392;2024-02-28T00:06:53;7.80;99.90
43679;DHT22;29279;50.858;4.392;2024-02-28T00:09:19;7.80;99.90
43679;DHT22;29279;50.858;4.392;2024-02-28T00:11:45;7.80;99.90
43679;DHT22;29279;50.858;4.392;2024-02-28T00:14:12;7.90;99.90
43679;DHT22;29279;50.858;4.392;2024-02-28T00:16:45;7.90;99.90
43679;DHT22;29279;50.858;4.392;2024-02-28T00:19:12;7.90;99.90
43679;DHT22;29279;50.858;4.392;2024-02-28T00:21:38;7.90;99.90
43679;DHT22;29279;50.858;4.392;2024-02-28T00:24:06;7.90;99.90
43679;DHT22;29279;50.858;4.392;2024-02-28T00:26:31;7.90;99.90
43679;DHT22;29279;50.858;4.392;2024-02-28T00:28:57;7.80;99.90
43679;DHT22;29279;50.858;4.392;2024-02-28T00:31:23;7.90;99.90
43679;DHT22;29279;50.858;4.392;2024-02-28T00:33:49;7.90;99.90
43679;DHT22;29279;50.858;4.392;2024-02-28T00:36:14;7.90;99.90
43679;DHT22;29279;50.858;4.392;2024-02-28T00:38:43;7.90;99.90
43679;DHT22;29279;50.858;4.392;2024-02-28T00:41:09;7.90;99.90
43679;DHT22;29279;50.858;4.392;2024-02-28T00:43:34;7.90;99.90
43679;DHT22;29279;50.858;4.392;2024-02-28T00:46:00;7.80;99.90
43679;DHT22;29279;50.858;4.392;2024-02-28T00:48:26;7.80;99.90
43679;DHT22;29279;50.858;4.392;2024-02-28T00:50:52;7.80;99.90
43679;DHT22;29279;50.858;4.392;2024-02-28T00:53:19;7.80;99.90
43679;DHT22;29279;50.858;4.392;2024-02-28T00:55:45;7.80;99.90
43679;DHT22;29279;50.858;4.392;2024-02-28T00:58:11;7.70;99.90
43679;DHT22;29279;50.858;4.392;2024-02-28T01:00:36;7.60;99.90
43679;DHT22;29279;50.858;4.392;2024-02-28T01:03:02;7.60;99.90
43679;DHT22;29279;50.858;4.392;2024-02-28T01:05:34;7.50;99.90
43679;DHT22;29279;50.858;4.392;2024-02-28T01:08:00;7.50;99.90
43679;DHT22;29279;50.858;4.392;2024-02-28T01:10:26;7.60;99.90
43679;DHT22;29279;50.858;4.392;2024-02-28T01:12:52;7.60;99.90
43679;DHT22;29279;50.858;4.392;2024-02-28T01:15:18;7.50;99.90
43679;DHT22;29279;50.858;4.392;2024-02-28T01:17:43;7.40;99.90
43679;DHT22;29279;50.858;4.392;2024-02-28T01:20:09;7.30;99.90
43679;DHT22;29279;50.858;4.392;2024-02-28T01:22:35;7.40;99.90
43679;DHT22;29279;50.858;4.392;2024-02-28T01:25:02;7.30;99.90
43679;DHT22;29279;50.858;4.392;2024-02-28T01:27:28;7.30;99.90
43679;DHT22;29279;50.858;4.392;2024-02-28T01:29:54;7.40;99.90
43679;DHT22;29279;50.858;4.392;2024-02-28T01:32:20;7.40;99.90
43679;DHT22;29279;50.858;4.392;2024-02-28T01:34:46;7.40;99.90
43679;DHT22;29279;50.858;4.392;2024-02-28T01:37:12;7.40;99.90
43679;DHT22;29279;50.858;4.392;2024-02-28T01:39:38;7.30;99.90
43679;DHT22;29279;50.858;4.392;2024-02-28T01:42:04;7.40;99.90
43679;DHT22;29279;50.858;4.392;2024-02-28T01:44:29;7.40;99.90
43679;DHT22;29279;50.858;4.392;2024-02-28T01:46:56;7.40;99.90
43679;DHT22;29279;50.858;4.392;2024-02-28T01:49:23;7.30;99.90
43679;DHT22;29279;50.858;4.392;2024-02-28T01:51:50;7.10;99.90
43679;DHT22;29279;50.858;4.392;2024-02-28T01:54:16;7.20;99.90
43679;DHT22;29279;50.858;4.392;2024-02-28T01:56:43;7.30;99.90
43679;DHT22;29279;50.858;4.392;2024-02-28T01:59:10;7.20;99.90
43679;DHT22;29279;50.858;4.392;2024-02-28T02:01:37;7.10;99.90
43679;DHT22;29279;50.858;4.392;2024-02-28T02:04:03;7.10;99.90
43679;DHT22;29279;50.858;4.392;2024-02-28T02:06:31;7.10;99.90
43679;DHT22;29279;50.858;4.392;2024-02-28T02:08:58;7.20;99.90
43679;DHT22;29279;50.858;4.392;2024-02-28T02:11:24;7.30;99.90
43679;DHT22;29279;50.858;4.392;2024-02-28T02:13:53;7.30;99.90
43679;DHT22;29279;50.858;4.392;2024-02-28T02:16:20;7.30;99.90
43679;DHT22;29279;50.858;4.392;2024-02-28T02:18:48;7.20;99.90
43679;DHT22;29279;50.858;4.392;2024-02-28T02:21:18;7.10;99.90
43679;DHT22;29279;50.858;4.392;2024-02-28T02:23:44;7.10;99.90
43679;DHT22;29279;50.858;4.392;2024-02-28T02:26:09;7.00;99.90
43679;DHT22;29279;50.858;4.392;2024-02-28T02:28:35;7.00;99.90
43679;DHT22;29279;50.858;4.392;2024-02-28T02:31:00;6.90;99.90
43679;DHT22;29279;50.858;4.392;2024-02-28T02:33:26;6.90;99.90
43679;DHT22;29279;50.858;4.392;2024-02-28T02:35:53;6.70;99.90
43679;DHT22;29279;50.858;4.392;2024-02-28T02:38:19;6.60;99.90
43679;DHT22;29279;50.858;4.392;2024-02-28T02:40:52;6.60;99.90
43679;DHT22;29279;50.858;4.392;2024-02-28T02:43:17;6.80;99.90
43679;DHT22;29279;50.858;4.392;2024-02-28T02:45:43;6.80;99.90
43679;DHT22;29279;50.858;4.392;2024-02-28T02:48:10;6.80;99.90
43679;DHT22;29279;50.858;4.392;2024-02-28T02:50:36;6.90;99.90
43679;DHT22;29279;50.858;4.392;2024-02-28T02:53:02;6.90;99.90
43679;DHT22;29279;50.858;4.392;2024-02-28T02:55:28;6.90;99.90
43679;DHT22;29279;50.858;4.392;2024-02-28T02:57:54;6.90;99.90
43679;DHT22;29279;50.858;4.392;2024-02-28T03:00:21;6.90;99.90
43679;DHT22;29279;50.858;4.392;2024-02-28T03:02:47;6.80;99.90
43679;DHT22;29279;50.858;4.392;2024-02-28T03:05:13;6.70;99.90
43679;DHT22;29279;50.858;4.392;2024-02-28T03:07:38;6.70;99.90
43679;DHT22;29279;50.858;4.392;2024-02-28T03:10:05;6.70;99.90
43679;DHT22;29279;50.858;4.392;2024-02-28T03:12:31;6.70;99.90
43679;DHT22;29279;50.858;4.392;2024-02-28T03:14:56;6.60;99.90
43679;DHT22;29279;50.858;4.392;2024-02-28T03:17:22;6.70;99.90
43679;DHT22;29279;50.858;4.392;2024-02-28T03:19:48;6.60;99.90
43679;DHT22;29279;50.858;4.392;2024-02-28T03:22:14;6.60;99.90
43679;DHT22;29279;50.858;4.392;2024-02-28T03:24:40;6.50;99.90
43679;DHT22;29279;50.858;4.392;2024-02-28T03:27:05;6.50;99.90
43679;DHT22;29279;50.858;4.392;2024-02-28T03:29:31;6.50;99.90
43679;DHT22;29279;50.858;4.392;2024-02-28T03:31:58;6.60;99.90
43679;DHT22;29279;50.858;4.392;2024-02-28T03:34:24;6.50;99.90
43679;DHT22;29279;50.858;4.392;2024-02-28T03:36:50;6.30;99.90
43679;DHT22;29279;50.858;4.392;2024-02-28T03:39:16;6.20;99.90
43679;DHT22;29279;50.858;4.392;2024-02-28T03:41:42;6.30;99.90
43679;DHT22;29279;50.858;4.392;2024-02-28T03:44:07;6.30;99.90
43679;DHT22;29279;50.858;4.392;2024-02-28T03:46:33;6.30;99.90
43679;DHT22;29279;50.858;4.392;2024-02-28T03:48:59;6.30;99.90
43679;DHT22;29279;50.858;4.392;2024-02-28T03:51:26;6.40;99.90
43679;DHT22;29279;50.858;4.392;2024-02-28T03:53:51;6.40;99.90
43679;DHT22;29279;50.858;4.392;2024-02-28T03:56:26;6.40;99.90
43679;DHT22;29279;50.858;4.392;2024-02-28T03:58:53;6.40;99.90
43679;DHT22;29279;50.858;4.392;2024-02-28T04:01:18;6.20;99.90
43679;DHT22;29279;50.858;4.392;2024-02-28T04:03:44;6.20;99.90
43679;DHT22;29279;50.858;4.392;2024-02-28T04:06:13;6.10;99.90
43679;DHT22;29279;50.858;4.392;2024-02-28T04:08:40;6.00;99.90
43679;DHT22;29279;50.858;4.392;2024-02-28T04:11:06;5.90;99.90
43679;DHT22;29279;50.858;4.392;2024-02-28T04:13:32;5.90;99.90
43679;DHT22;29279;50.858;4.392;2024-02-28T04:15:58;5.90;99.90
43679;DHT22;29279;50.858;4.392;2024-02-28T04:18:24;5.90;99.90
43679;DHT22;29279;50.858;4.392;2024-02-28T04:20:50;5.70;99.90
43679;DHT22;29279;50.858;4.392;2024-02-28T04:23:15;5.70;99.90
43679;DHT22;29279;50.858;4.392;2024-02-28T04:25:42;5.70;99.90
43679;DHT22;29279;50.858;4.392;2024-02-28T04:28:08;5.80;99.90
43679;DHT22;29279;50.858;4.392;2024-02-28T04:30:37;5.80;99.90
43679;DHT22;29279;50.858;4.392;2024-02-28T04:33:02;5.80;99.90
43679;DHT22;29279;50.858;4.392;2024-02-28T04:35:28;5.80;99.90
43679;DHT22;29279;50.858;4.392;2024-02-28T04:37:54;5.80;99.90
43679;DHT22;29279;50.858;4.392;2024-02-28T04:40:19;5.80;99.90
43679;DHT22;29279;50.858;4.392;2024-02-28T04:42:45;5.90;99.90
43679;DHT22;29279;50.858;4.392;2024-02-28T04:45:11;6.00;99.90
43679;DHT22;29279;50.858;4.392;2024-02-28T04:47:37;5.90;99.90
43679;DHT22;29279;50.858;4.392;2024-02-28T04:50:04;6.00;99.90
43679;DHT22;29279;50.858;4.392;2024-02-28T04:52:33;6.00;99.90
43679;DHT22;29279;50.858;4.392;2024-02-28T04:54:59;6.00;99.90
43679;DHT22;29279;50.858;4.392;2024-02-28T04:57:25;6.10;99.90
43679;DHT22;29279;50.858;4.392;2024-02-28T04:59:50;6.10;99.90
43679;DHT22;29279;50.858;4.392;2024-02-28T05:02:16;6.10;99.90
43679;DHT22;29279;50.858;4.392;2024-02-28T05:04:42;6.20;99.90
43679;DHT22;29279;50.858;4.392;2024-02-28T05:07:08;6.20;99.90
43679;DHT22;29279;50.858;4.392;2024-02-28T05:09:34;6.20;99.90
43679;DHT22;29279;50.858;4.392;2024-02-28T05:12:03;6.00;99.90
43679;DHT22;29279;50.858;4.392;2024-02-28T05:14:29;6.10;99.90
43679;DHT22;29279;50.858;4.392;2024-02-28T05:16:55;6.10;99.90
43679;DHT22;29279;50.858;4.392;2024-02-28T05:19:21;6.10;99.90
43679;DHT22;29279;50.858;4.392;2024-02-28T05:21:47;6.10;99.90
43679;DHT22;29279;50.858;4.392;2024-02-28T05:24:13;6.20;99.90
43679;DHT22;29279;50.858;4.392;2024-02-28T05:26:39;6.30;99.90
43679;DHT22;29279;50.858;4.392;2024-02-28T05:29:05;6.30;99.90
43679;DHT22;29279;50.858;4.392;2024-02-28T05:31:31;6.30;99.90
43679;DHT22;29279;50.858;4.392;2024-02-28T05:33:58;6.40;99.90
43679;DHT22;29279;50.858;4.392;2024-02-28T05:36:25;6.40;99.90
43679;DHT22;29279;50.858;4.392;2024-02-28T05:38:52;6.30;99.90
43679;DHT22;29279;50.858;4.392;2024-02-28T05:41:19;6.30;99.90
43679;DHT22;29279;50.858;4.392;2024-02-28T05:43:45;6.30;99.90
43679;DHT22;29279;50.858;4.392;2024-02-28T05:46:11;6.30;99.90
43679;DHT22;29279;50.858;4.392;2024-02-28T05:48:37;6.30;99.90
43679;DHT22;29279;50.858;4.392;2024-02-28T05:51:03;6.30;99.90
43679;DHT22;29279;50.858;4.392;2024-02-28T05:53:30;6.10;99.90
43679;DHT22;29279;50.858;4.392;2024-02-28T05:56:01;5.90;99.90
43679;DHT22;29279;50.858;4.392;2024-02-28T05:58:27;5.90;99.90
43679;DHT22;29279;50.858;4.392;2024-02-28T06:00:53;5.90;99.90
43679;DHT22;29279;50.858;4.392;2024-02-28T06:03:19;6.10;99.90
43679;DHT22;29279;50.858;4.392;2024-02-28T06:05:44;6.10;99.90
43679;DHT22;29279;50.858;4.392;2024-02-28T06:08:10;6.10;99.90
43679;DHT22;29279;50.858;4.392;2024-02-28T06:10:36;6.10;99.90
43679;DHT22;29279;50.858;4.392;2024-02-28T06:13:02;6.10;99.90
43679;DHT22;29279;50.858;4.392;2024-02-28T06:15:28;6.20;99.90
43679;DHT22;29279;50.858;4.392;2024-02-28T06:17:57;6.10;99.90
43679;DHT22;29279;50.858;4.392;2024-02-28T06:20:22;6.20;99.90
43679;DHT22;29279;50.858;4.392;2024-02-28T06:22:48;6.20;99.90
43679;DHT22;29279;50.858;4.392;2024-02-28T06:25:14;6.30;99.90
43679;DHT22;29279;50.858;4.392;2024-02-28T06:27:45;6.40;99.90
43679;DHT22;29279;50.858;4.392;2024-02-28T06:30:12;6.50;99.90
43679;DHT22;29279;50.858;4.392;2024-02-28T06:32:38;6.50;99.90
43679;DHT22;29279;50.858;4.392;2024-02-28T06:35:05;6.60;99.90
43679;DHT22;29279;50.858;4.392;2024-02-28T06:37:30;6.60;99.90
43679;DHT22;29279;50.858;4.392;2024-02-28T06:39:56;6.60;99.90
43679;DHT22;29279;50.858;4.392;2024-02-28T06:42:21;6.80;99.90
43679;DHT22;29279;50.858;4.392;2024-02-28T06:44:47;6.90;99.90
43679;DHT22;29279;50.858;4.392;2024-02-28T06:47:13;7.00;99.90
43679;DHT22;29279;50.858;4.392;2024-02-28T06:49:39;7.00;99.90
43679;DHT22;29279;50.858;4.392;2024-02-28T06:52:05;6.90;99.90
43679;DHT22;29279;50.858;4.392;2024-02-28T06:54:31;6.90;99.90
43679;DHT22;29279;50.858;4.392;2024-02-28T06:56:57;6.90;99.90
43679;DHT22;29279;50.858;4.392;2024-02-28T06:59:23;7.00;99.90
43679;DHT22;29279;50.858;4.392;2024-02-28T07:01:49;7.10;99.90
43679;DHT22;29279;50.858;4.392;2024-02-28T07:04:14;7.20;99.90
43679;DHT22;29279;50.858;4.392;2024-02-28T07:06:40;7.20;99.90
43679;DHT22;29279;50.858;4.392;2024-02-28T07:09:08;7.20;99.90
43679;DHT22;29279;50.858;4.392;2024-02-28T07:11:34;7.30;99.90
43679;DHT22;29279;50.858;4.392;2024-02-28T07:14:00;7.30;99.90
43679;DHT22;29279;50.858;4.392;2024-02-28T07:16:29;7.30;99.90
43679;DHT22;29279;50.858;4.392;2024-02-28T07:18:55;7.50;99.90
43679;DHT22;29279;50.858;4.392;2024-02-28T07:21:20;7.50;99.90
43679;DHT22;29279;50.858;4.392;2024-02-28T07:23:46;7.50;99.90
43679;DHT22;29279;50.858;4.392;2024-02-28T07:26:15;7.60;99.90
43679;DHT22;29279;50.858;4.392;2024-02-28T07:28:41;7.40;99.90
43679;DHT22;29279;50.858;4.392;2024-02-28T07:31:07;7.40;99.90
43679;DHT22;29279;50.858;4.392;2024-02-28T07:33:40;7.50;99.90
43679;DHT22;29279;50.858;4.392;2024-02-28T07:36:06;7.50;99.90
43679;DHT22;29279;50.858;4.392;2024-02-28T07:38:32;7.50;99.90
43679;DHT22;29279;50.858;4.392;2024-02-28T07:40:58;7.60;99.90
43679;DHT22;29279;50.858;4.392;2024-02-28T07:43:24;7.60;99.90
43679;DHT22;29279;50.858;4.392;2024-02-28T07:45:49;7.70;99.90
43679;DHT22;29279;50.858;4.392;2024-02-28T07:48:15;7.70;99.90
43679;DHT22;29279;50.858;4.392;2024-02-28T07:50:44;7.70;99.90
43679;DHT22;29279;50.858;4.392;2024-02-28T07:53:10;7.70;99.90
43679;DHT22;29279;50.858;4.392;2024-02-28T07:55:35;7.80;99.90
43679;DHT22;29279;50.858;4.392;2024-02-28T07:58:01;7.90;99.90
43679;DHT22;29279;50.858;4.392;2024-02-28T08:00:27;8.00;99.90
43679;DHT22;29279;50.858;4.392;2024-02-28T08:02:52;8.00;99.90
43679;DHT22;29279;50.858;4.392;2024-02-28T08:05:18;8.00;99.90
43679;DHT22;29279;50.858;4.392;2024-02-28T08:07:44;8.00;99.90
43679;DHT22;29279;50.858;4.392;2024-02-28T08:10:10;7.90;99.90
43679;DHT22;29279;50.858;4.392;2024-02-28T08:12:36;7.90;99.90
43679;DHT22;29279;50.858;4.392;2024-02-28T08:15:03;8.00;99.90
43679;DHT22;29279;50.858;4.392;2024-02-28T08:17:28;8.10;99.90
43679;DHT22;29279;50.858;4.392;2024-02-28T08:19:54;8.10;99.90
43679;DHT22;29279;50.858;4.392;2024-02-28T08:22:20;8.30;99.90
43679;DHT22;29279;50.858;4.392;2024-02-28T08:24:46;8.30;99.90
43679;DHT22;29279;50.858;4.392;2024-02-28T08:27:11;8.40;99.90
43679;DHT22;29279;50.858;4.392;2024-02-28T08:29:40;8.50;99.90
43679;DHT22;29279;50.858;4.392;2024-02-28T08:32:10;8.50;99.90
43679;DHT22;29279;50.858;4.392;2024-02-28T08:34:36;8.30;99.90
43679;DHT22;29279;50.858;4.392;2024-02-28T08:37:01;8.40;99.90
43679;DHT22;29279;50.858;4.392;2024-02-28T08:39:27;8.40;99.90
43679;DHT22;29279;50.858;4.392;2024-02-28T08:41:53;8.40;99.90
43679;DHT22;29279;50.858;4.392;2024-02-28T08:44:19;8.30;99.90
43679;DHT22;29279;50.858;4.392;2024-02-28T08:46:49;8.50;99.90
43679;DHT22;29279;50.858;4.392;2024-02-28T08:49:15;8.60;99.90
43679;DHT22;29279;50.858;4.392;2024-02-28T08:51:42;8.70;99.90
43679;DHT22;29279;50.858;4.392;2024-02-28T08:54:08;8.80;99.90
43679;DHT22;29279;50.858;4.392;2024-02-28T08:56:34;8.80;99.90
43679;DHT22;29279;50.858;4.392;2024-02-28T08:58:59;8.70;99.90
43679;DHT22;29279;50.858;4.392;2024-02-28T09:01:25;8.70;99.90
43679;DHT22;29279;50.858;4.392;2024-02-28T09:03:51;8.90;99.90
43679;DHT22;29279;50.858;4.392;2024-02-28T09:06:16;8.80;99.90
43679;DHT22;29279;50.858;4.392;2024-02-28T09:08:42;8.80;99.90
43679;DHT22;29279;50.858;4.392;2024-02-28T09:11:08;8.80;99.90
43679;DHT22;29279;50.858;4.392;2024-02-28T09:13:33;8.70;99.90
43679;DHT22;29279;50.858;4.392;2024-02-28T09:16:01;8.60;99.90
43679;DHT22;29279;50.858;4.392;2024-02-28T09:18:27;8.40;99.90
43679;DHT22;29279;50.858;4.392;2024-02-28T09:20:53;8.60;99.90
43679;DHT22;29279;50.858;4.392;2024-02-28T09:23:19;8.70;99.90
43679;DHT22;29279;50.858;4.392;2024-02-28T09:25:44;8.70;99.90
43679;DHT22;29279;50.858;4.392;2024-02-28T09:28:10;8.90;99.90
43679;DHT22;29279;50.858;4.392;2024-02-28T09:30:39;8.90;99.90
43679;DHT22;29279;50.858;4.392;2024-02-28T09:33:04;8.60;99.90
43679;DHT22;29279;50.858;4.392;2024-02-28T09:35:30;8.60;99.90
43679;DHT22;29279;50.858;4.392;2024-02-28T09:37:56;8.80;99.90
43679;DHT22;29279;50.858;4.392;2024-02-28T09:40:22;8.80;99.90
43679;DHT22;29279;50.858;4.392;2024-02-28T09:42:52;8.80;99.90
43679;DHT22;29279;50.858;4.392;2024-02-28T09:45:21;9.00;99.90
43679;DHT22;29279;50.858;4.392;2024-02-28T09:47:48;9.20;99.90
43679;DHT22;29279;50.858;4.392;2024-02-28T09:50:14;9.30;99.90
43679;DHT22;29279;50.858;4.392;2024-02-28T09:52:41;9.30;99.90
43679;DHT22;29279;50.858;4.392;2024-02-28T09:55:07;9.20;99.90
43679;DHT22;29279;50.858;4.392;2024-02-28T09:57:32;9.20;99.90
43679;DHT22;29279;50.858;4.392;2024-02-28T10:00:00;9.20;99.90
43679;DHT22;29279;50.858;4.392;2024-02-28T10:02:26;9.20;99.90
43679;DHT22;29279;50.858;4.392;2024-02-28T10:04:53;9.10;99.90
43679;DHT22;29279;50.858;4.392;2024-02-28T10:07:19;9.10;99.90
43679;DHT22;29279;50.858;4.392;2024-02-28T10:09:45;9.30;99.90
43679;DHT22;29279;50.858;4.392;2024-02-28T10:12:11;9.40;99.90
43679;DHT22;29279;50.858;4.392;2024-02-28T10:14:37;9.30;99.90
43679;DHT22;29279;50.858;4.392;2024-02-28T10:17:04;9.40;99.90
43679;DHT22;29279;50.858;4.392;2024-02-28T10:19:30;9.40;99.90
43679;DHT22;29279;50.858;4.392;2024-02-28T10:21:56;9.40;99.90
43679;DHT22;29279;50.858;4.392;2024-02-28T10:24:24;9.40;99.90
43679;DHT22;29279;50.858;4.392;2024-02-28T10:26:50;9.50;99.90
43679;DHT22;29279;50.858;4.392;2024-02-28T10:29:25;9.60;99.90
43679;DHT22;29279;50.858;4.392;2024-02-28T10:31:55;9.80;99.90
43679;DHT22;29279;50.858;4.392;2024-02-28T10:34:21;10.00;99.90
43679;DHT22;29279;50.858;4.392;2024-02-28T10:36:47;10.20;99.90
43679;DHT22;29279;50.858;4.392;2024-02-28T10:39:13;10.50;99.90
43679;DHT22;29279;50.858;4.392;2024-02-28T10:41:39;10.50;99.90
43679;DHT22;29279;50.858;4.392;2024-02-28T10:44:05;10.40;99.90
43679;DHT22;29279;50.858;4.392;2024-02-28T10:46:31;10.50;99.90
43679;DHT22;29279;50.858;4.392;2024-02-28T10:48:57;10.60;99.90
43679;DHT22;29279;50.858;4.392;2024-02-28T10:51:24;10.70;99.90
43679;DHT22;29279;50.858;4.392;2024-02-28T10:54:07;10.90;99.90
43679;DHT22;29279;50.858;4.392;2024-02-28T10:56:41;10.90;99.90
43679;DHT22;29279;50.858;4.392;2024-02-28T10:59:10;10.90;99.90
43679;DHT22;29279;50.858;4.392;2024-02-28T11:01:40;10.90;99.90
43679;DHT22;29279;50.858;4.392;2024-02-28T11:04:10;11.10;99.90
43679;DHT22;29279;50.858;4.392;2024-02-28T11:06:50;11.10;99.90
43679;DHT22;29279;50.858;4.392;2024-02-28T11:09:23;11.00;99.90
43679;DHT22;29279;50.858;4.392;2024-02-28T11:11:52;10.90;99.90
43679;DHT22;29279;50.858;4.392;2024-02-28T11:14:18;11.00;99.90
43679;DHT22;29279;50.858;4.392;2024-02-28T11:16:59;11.00;99.90
43679;DHT22;29279;50.858;4.392;2024-02-28T11:19:28;11.00;99.90
43679;DHT22;29279;50.858;4.392;2024-02-28T11:21:55;10.90;99.90
43679;DHT22;29279;50.858;4.392;2024-02-28T11:24:27;11.00;99.90
43679;DHT22;29279;50.858;4.392;2024-02-28T11:26:53;10.90;99.90
43679;DHT22;29279;50.858;4.392;2024-02-28T11:29:29;11.00;99.90
43679;DHT22;29279;50.858;4.392;2024-02-28T11:31:55;11.20;99.90
43679;DHT22;29279;50.858;4.392;2024-02-28T11:34:21;11.30;99.90
43679;DHT22;29279;50.858;4.392;2024-02-28T11:36:48;11.50;99.90
43679;DHT22;29279;50.858;4.392;2024-02-28T11:39:14;11.80;99.90
43679;DHT22;29279;50.858;4.392;2024-02-28T11:41:41;11.80;99.90
43679;DHT22;29279;50.858;4.392;2024-02-28T11:44:06;11.40;99.90
43679;DHT22;29279;50.858;4.392;2024-02-28T11:46:32;11.40;99.90
43679;DHT22;29279;50.858;4.392;2024-02-28T11:48:58;11.30;99.90
43679;DHT22;29279;50.858;4.392;2024-02-28T11:51:26;11.40;99.90
43679;DHT22;29279;50.858;4.392;2024-02-28T11:53:51;11.60;99.90
43679;DHT22;29279;50.858;4.392;2024-02-28T11:56:17;11.80;99.90
43679;DHT22;29279;50.858;4.392;2024-02-28T11:58:50;11.80;99.90
43679;DHT22;29279;50.858;4.392;2024-02-28T12:01:16;11.90;99.90
43679;DHT22;29279;50.858;4.392;2024-02-28T12:03:45;11.90;99.90
43679;DHT22;29279;50.858;4.392;2024-02-28T12:06:11;11.90;99.90
43679;DHT22;29279;50.858;4.392;2024-02-28T12:08:37;12.10;99.90
43679;DHT22;29279;50.858;4.392;2024-02-28T12:11:07;12.20;99.90
43679;DHT22;29279;50.858;4.392;2024-02-28T12:13:33;12.40;99.90
43679;DHT22;29279;50.858;4.392;2024-02-28T12:16:00;12.80;99.90
43679;DHT22;29279;50.858;4.392;2024-02-28T12:18:26;13.10;99.90
43679;DHT22;29279;50.858;4.392;2024-02-28T12:20:54;13.30;99.90
43679;DHT22;29279;50.858;4.392;2024-02-28T12:23:19;13.20;99.90
43679;DHT22;29279;50.858;4.392;2024-02-28T12:25:45;13.00;99.90
43679;DHT22;29279;50.858;4.392;2024-02-28T12:28:11;12.90;99.90
43679;DHT22;29279;50.858;4.392;2024-02-28T12:30:41;12.90;99.90
43679;DHT22;29279;50.858;4.392;2024-02-28T12:33:10;13.00;99.90
43679;DHT22;29279;50.858;4.392;2024-02-28T12:35:37;13.00;99.90
43679;DHT22;29279;50.858;4.392;2024-02-28T12:38:02;12.90;99.90
43679;DHT22;29279;50.858;4.392;2024-02-28T12:40:28;12.70;99.90
43679;DHT22;29279;50.858;4.392;2024-02-28T12:42:54;12.40;99.90
43679;DHT22;29279;50.858;4.392;2024-02-28T12:45:20;12.20;99.90
43679;DHT22;29279;50.858;4.392;2024-02-28T12:47:45;12.10;99.90
43679;DHT22;29279;50.858;4.392;2024-02-28T12:50:11;12.00;99.90
43679;DHT22;29279;50.858;4.392;2024-02-28T12:52:37;11.90;99.90
43679;DHT22;29279;50.858;4.392;2024-02-28T12:55:03;11.90;99.90
43679;DHT22;29279;50.858;4.392;2024-02-28T12:57:29;12.00;99.90
43679;DHT22;29279;50.858;4.392;2024-02-28T12:59:54;12.10;99.90
43679;DHT22;29279;50.858;4.392;2024-02-28T13:02:21;12.10;99.90
43679;DHT22;29279;50.858;4.392;2024-02-28T13:04:47;12.00;99.90
43679;DHT22;29279;50.858;4.392;2024-02-28T13:07:14;11.90;99.90
43679;DHT22;29279;50.858;4.392;2024-02-28T13:09:40;11.80;99.90
43679;DHT22;29279;50.858;4.392;2024-02-28T13:12:07;11.60;99.90
43679;DHT22;29279;50.858;4.392;2024-02-28T13:14:34;11.70;99.90
43679;DHT22;29279;50.858;4.392;2024-02-28T13:16:59;11.70;99.90
43679;DHT22;29279;50.858;4.392;2024-02-28T13:19:25;11.80;99.90
43679;DHT22;29279;50.858;4.392;2024-02-28T13:21:51;11.80;99.90
43679;DHT22;29279;50.858;4.392;2024-02-28T13:24:17;11.70;99.90
43679;DHT22;29279;50.858;4.392;2024-02-28T13:26:44;11.60;99.90
43679;DHT22;29279;50.858;4.392;2024-02-28T13:29:09;11.50;99.90
43679;DHT22;29279;50.858;4.392;2024-02-28T13:31:35;11.60;99.90
43679;DHT22;29279;50.858;4.392;2024-02-28T13:34:01;11.70;99.90
43679;DHT22;29279;50.858;4.392;2024-02-28T13:36:29;11.80;99.90
43679;DHT22;29279;50.858;4.392;2024-02-28T13:38:57;11.80;99.90
43679;DHT22;29279;50.858;4.392;2024-02-28T13:41:23;11.70;99.90
43679;DHT22;29279;50.858;4.392;2024-02-28T13:43:49;11.60;99.90
43679;DHT22;29279;50.858;4.392;2024-02-28T13:46:15;11.60;99.90
43679;DHT22;29279;50.858;4.392;2024-02-28T13:48:40;11.60;99.90
43679;DHT22;29279;50.858;4.392;2024-02-28T13:51:06;11.60;99.90
43679;DHT22;29279;50.858;4.392;2024-02-28T13:53:32;11.70;99.90
43679;DHT22;29279;50.858;4.392;2024-02-28T13:55:57;12.00;99.90
43679;DHT22;29279;50.858;4.392;2024-02-28T13:58:23;12.10;99.90
43679;DHT22;29279;50.858;4.392;2024-02-28T14:00:49;12.10;99.90
43679;DHT22;29279;50.858;4.392;2024-02-28T14:03:15;12.10;99.90
43679;DHT22;29279;50.858;4.392;2024-02-28T14:05:40;12.70;99.90
43679;DHT22;29279;50.858;4.392;2024-02-28T14:08:06;12.90;99.90
43679;DHT22;29279;50.858;4.392;2024-02-28T14:10:34;12.80;99.90
43679;DHT22;29279;50.858;4.392;2024-02-28T14:13:00;12.60;99.90
43679;DHT22;29279;50.858;4.392;2024-02-28T14:15:26;12.70;99.90
43679;DHT22;29279;50.858;4.392;2024-02-28T14:17:52;12.80;99.90
43679;DHT22;29279;50.858;4.392;2024-02-28T14:20:18;12.70;99.90
43679;DHT22;29279;50.858;4.392;2024-02-28T14:22:44;12.40;99.90
43679;DHT22;29279;50.858;4.392;2024-02-28T14:25:11;12.60;99.90
43679;DHT22;29279;50.858;4.392;2024-02-28T14:27:39;12.60;99.90
43679;DHT22;29279;50.858;4.392;2024-02-28T14:30:08;12.30;99.90
43679;DHT22;29279;50.858;4.392;2024-02-28T14:32:35;12.10;99.90
43679;DHT22;29279;50.858;4.392;2024-02-28T14:35:05;12.00;99.90
43679;DHT22;29279;50.858;4.392;2024-02-28T14:37:34;12.00;99.90
43679;DHT22;29279;50.858;4.392;2024-02-28T14:40:03;11.90;99.90
43679;DHT22;29279;50.858;4.392;2024-02-28T14:42:39;11.90;99.90
43679;DHT22;29279;50.858;4.392;2024-02-28T14:45:09;11.80;99.90
43679;DHT22;29279;50.858;4.392;2024-02-28T14:47:39;11.70;99.90
43679;DHT22;29279;50.858;4.392;2024-02-28T14:50:05;11.60;99.90
43679;DHT22;29279;50.858;4.392;2024-02-28T14:52:31;11.50;99.90
43679;DHT22;29279;50.858;4.392;2024-02-28T14:54:58;11.50;99.90
43679;DHT22;29279;50.858;4.392;2024-02-28T14:57:23;11.50;99.90
43679;DHT22;29279;50.858;4.392;2024-02-28T14:59:49;11.50;99.90
43679;DHT22;29279;50.858;4.392;2024-02-28T15:02:15;11.60;99.90
43679;DHT22;29279;50.858;4.392;2024-02-28T15:04:40;11.60;99.90
43679;DHT22;29279;50.858;4.392;2024-02-28T15:07:06;11.60;99.90
43679;DHT22;29279;50.858;4.392;2024-02-28T15:09:32;11.50;99.90
43679;DHT22;29279;50.858;4.392;2024-02-28T15:11:59;11.40;99.90
43679;DHT22;29279;50.858;4.392;2024-02-28T15:14:25;11.50;99.90
43679;DHT22;29279;50.858;4.392;2024-02-28T15:16:51;11.60;99.90
43679;DHT22;29279;50.858;4.392;2024-02-28T15:19:19;11.90;99.90
43679;DHT22;29279;50.858;4.392;2024-02-28T15:21:45;11.80;99.90
43679;DHT22;29279;50.858;4.392;2024-02-28T15:24:11;12.00;99.90
43679;DHT22;29279;50.858;4.392;2024-02-28T15:26:37;11.90;99.90
43679;DHT22;29279;50.858;4.392;2024-02-28T15:29:03;11.80;99.90
43679;DHT22;29279;50.858;4.392;2024-02-28T15:31:29;11.80;99.90
43679;DHT22;29279;50.858;4.392;2024-02-28T15:33:55;11.60;99.90
43679;DHT22;29279;50.858;4.392;2024-02-28T15:36:21;11.60;99.90